Cleveland, OH (44128)

11:54 PM EDT on May 24, 2015 (GMT -0400)
OHDOT | | Change Station
CLOSE
Current Station
Personal Weather Station
Location: Cleveland, OH
Elevation: 1059 ft
Nearby Weather Stations

Elev 1059 ft 41.42 °N, 81.51 °W | Updated 24 minutes ago

Partly Cloudy
Partly Cloudy
69 °F
Feels Like 69 °F
N
5
Wind Variable Wind from NNE
Gusts 7.0 mph

Today
High -- | Low -- °F
--% Chance of Precip.
Yesterday
High -- | Low -- °F
Precip. -- in
5:59 AM 8:46 PM
Waxing Crescent, 45% visible
Pressure 30.17 in
Visibility 10.0 miles
Clouds Scattered Clouds 12000 ft
Scattered Clouds 20000 ft
Dew Point 47 °F
Humidity 45%
Rainfall in
Snow Depth Not available.
UV 0 out of 12
Pollen 10.10 out of 12
Air Quality Not available.
Flu Activity Local Activity
METAR KCGF 250245Z 17010KT 10SM SCT120 SCT200 23/08 A3017

More Conditions Fewer Conditions

Pressure 30.17 in
Visibility 10.0 miles
Clouds Scattered Clouds 12000 ft
Scattered Clouds 20000 ft
Dew Point 47 °F
Humidity 45%
Rainfall in
Snow Depth Not available.
UV 0 out of 12
Pollen 10.10 out of 12
Air Quality Not available.
Flu Activity Local Activity
METAR KCGF 250245Z 17010KT 10SM SCT120 SCT200 23/08 A3017

More Conditions Fewer Conditions

10-Day Weather Forecast

Almanac

Astronomy

May. 24, 2015 Rise Set
Actual Time
Civil Twilight
Nautical Twilight
Astronomical Twilight
Moon
Length of Visible Light
Length of Day
Tomorrow will be .
, % of the Moon is Illuminated

Today's Extremes

State Highs State Lows

Community

WunderPhotos

Upload Photos

1,823,945 photos uploaded!

WunderBlogs® & News

Nearby

Air Quality

  Air Quality AQ Index Pollutant
Not available.

Snow Depth

Station Depth Elevation

Earthquake Activity

City Distance Mag. Time & Date
Minimum magnitude displayed is 2.5.

Coastal Water Temperatures

Place Temperature

Stations

Nearby Weather Stations

Station Location Temp. Windchill Dew Point Humidity Wind Precip. Elev Updated Type